KRHV 160247Z 33008KT 10SM SKC 20/14 A2991